createdAt,value
2023-02-22T00:00:27.866Z,16.60
2023-02-22T00:01:27.845Z,17.30
2023-02-22T00:02:27.857Z,17.30
2023-02-22T00:03:27.915Z,18.00
2023-02-22T00:04:27.829Z,17.80
2023-02-22T00:05:27.820Z,14.20
2023-02-22T00:06:27.820Z,17.50
2023-02-22T00:07:27.815Z,17.40
2023-02-22T00:08:27.828Z,16.00
2023-02-22T00:09:27.805Z,16.20
2023-02-22T00:10:27.847Z,14.40
2023-02-22T00:11:27.776Z,15.40
2023-02-22T00:12:27.781Z,15.90
2023-02-22T00:13:27.777Z,15.80
2023-02-22T00:14:27.762Z,16.60
2023-02-22T00:15:27.760Z,15.10
2023-02-22T00:16:27.879Z,16.30
2023-02-22T00:17:27.746Z,15.60
2023-02-22T00:18:27.740Z,15.80
2023-02-22T00:19:27.738Z,17.90
2023-02-22T00:20:27.711Z,15.60
2023-02-22T00:21:27.752Z,19.00
2023-02-22T00:22:27.730Z,18.50
2023-02-22T00:23:27.706Z,22.20
2023-02-22T00:24:27.729Z,19.60
2023-02-22T00:25:27.695Z,19.70
2023-02-22T00:26:27.688Z,23.80
2023-02-22T00:27:27.696Z,22.30
2023-02-22T00:28:27.670Z,21.10
2023-02-22T00:29:27.673Z,22.00
2023-02-22T00:30:27.706Z,30.70
2023-02-22T00:31:27.731Z,26.60
2023-02-22T00:32:27.691Z,19.40
2023-02-22T00:33:27.643Z,22.20
2023-02-22T00:34:27.634Z,25.80
2023-02-22T00:35:27.640Z,22.20
2023-02-22T00:36:27.659Z,19.80
2023-02-22T00:37:27.640Z,21.20
2023-02-22T00:38:27.606Z,19.70
2023-02-22T00:39:27.614Z,19.90
2023-02-22T00:40:27.602Z,22.20
2023-02-22T00:41:27.646Z,20.20
2023-02-22T00:42:27.596Z,17.00
2023-02-22T00:43:27.617Z,20.20
2023-02-22T00:44:27.561Z,22.20
2023-02-22T00:45:27.557Z,20.80
2023-02-22T00:46:27.561Z,19.50
2023-02-22T00:47:27.566Z,22.70
2023-02-22T00:48:27.554Z,22.70
2023-02-22T00:49:27.543Z,25.00
2023-02-22T00:50:27.540Z,23.60
2023-02-22T00:51:27.572Z,24.80
2023-02-22T00:52:27.530Z,28.20
2023-02-22T00:53:27.522Z,31.60
2023-02-22T00:54:27.525Z,33.50
2023-02-22T00:55:27.545Z,24.60
2023-02-22T00:56:27.514Z,26.40
2023-02-22T00:57:27.502Z,26.70
2023-02-22T00:58:27.481Z,27.90
2023-02-22T00:59:27.491Z,36.40
2023-02-22T01:00:27.489Z,30.60
2023-02-22T01:01:27.565Z,37.90
2023-02-22T01:02:27.564Z,29.40
2023-02-22T01:03:27.526Z,48.70
2023-02-22T01:04:27.456Z,37.10
2023-02-22T01:05:27.453Z,64.90
2023-02-22T01:06:27.445Z,47.20
2023-02-22T01:07:27.459Z,29.70
2023-02-22T01:08:27.430Z,80.00
2023-02-22T01:09:27.409Z,43.80
2023-02-22T01:10:27.446Z,53.70
2023-02-22T01:11:27.444Z,51.30
2023-02-22T01:12:27.397Z,41.80
2023-02-22T01:13:27.394Z,41.70
2023-02-22T01:14:27.390Z,45.50
2023-02-22T01:15:27.373Z,45.10
2023-02-22T01:16:27.410Z,29.70
2023-02-22T01:17:27.365Z,83.80
2023-02-22T01:18:27.396Z,70.70
2023-02-22T01:19:27.359Z,68.00
2023-02-22T01:20:27.397Z,45.40
2023-02-22T01:21:27.338Z,58.10
2023-02-22T01:22:27.335Z,57.10
2023-02-22T01:23:27.330Z,45.70
2023-02-22T01:24:27.323Z,53.40
2023-02-22T01:25:27.331Z,54.50
2023-02-22T01:26:27.343Z,59.40
2023-02-22T01:27:27.302Z,53.50
2023-02-22T01:28:27.326Z,34.70
2023-02-22T01:29:27.304Z,40.60
2023-02-22T01:30:27.351Z,50.50
2023-02-22T01:31:27.316Z,55.90
2023-02-22T01:32:27.284Z,47.60
2023-02-22T01:33:27.265Z,38.20
2023-02-22T01:34:27.295Z,48.50
2023-02-22T01:35:27.267Z,50.80
2023-02-22T01:36:27.236Z,74.50
2023-02-22T01:37:27.232Z,48.90
2023-02-22T01:38:27.233Z,50.00
2023-02-22T01:39:27.266Z,54.20
2023-02-22T01:40:27.242Z,31.80
2023-02-22T01:41:27.219Z,35.30
2023-02-22T01:42:27.220Z,30.50
2023-02-22T01:43:27.200Z,38.10
2023-02-22T01:44:27.213Z,45.20
2023-02-22T01:45:27.211Z,31.90
2023-02-22T01:46:27.291Z,46.20
2023-02-22T01:47:27.180Z,43.10
2023-02-22T01:48:27.176Z,49.60
2023-02-22T01:49:27.171Z,37.80
2023-02-22T01:50:27.162Z,57.10
2023-02-22T01:51:27.173Z,39.30
2023-02-22T01:52:27.137Z,35.00
2023-02-22T01:53:27.149Z,38.80
2023-02-22T01:54:27.135Z,49.20
2023-02-22T01:55:27.126Z,53.40
2023-02-22T01:56:27.106Z,102.70
2023-02-22T01:57:27.134Z,48.70
2023-02-22T01:58:27.100Z,48.10
2023-02-22T01:59:27.097Z,56.60
2023-02-22T02:00:27.083Z,59.60
2023-02-22T02:01:27.137Z,42.80
2023-02-22T02:02:27.119Z,35.10
2023-02-22T02:03:27.060Z,49.80
2023-02-22T02:04:27.074Z,87.20
2023-02-22T02:05:27.064Z,77.80
2023-02-22T02:06:27.079Z,98.00
2023-02-22T02:07:27.061Z,82.60
2023-02-22T02:08:27.066Z,76.80
2023-02-22T02:09:27.083Z,70.20
2023-02-22T02:10:27.045Z,62.70
2023-02-22T02:11:27.029Z,60.40
2023-02-22T02:12:27.061Z,56.50
2023-02-22T02:13:27.009Z,42.60
2023-02-22T02:14:27.009Z,36.70
2023-02-22T02:15:26.990Z,35.00
2023-02-22T02:16:27.057Z,30.30
2023-02-22T02:17:26.997Z,38.80
2023-02-22T02:18:26.999Z,81.80
2023-02-22T02:19:26.957Z,48.50
2023-02-22T02:20:26.953Z,79.90
2023-02-22T02:21:26.988Z,206.90
2023-02-22T02:22:26.955Z,191.90
2023-02-22T02:23:26.972Z,318.60
2023-02-22T02:24:26.964Z,172.40
2023-02-22T02:25:26.941Z,53.90
2023-02-22T02:26:26.992Z,47.50
2023-02-22T02:27:26.941Z,31.30
2023-02-22T02:28:26.949Z,31.70
2023-02-22T02:29:26.941Z,34.80
2023-02-22T02:30:26.988Z,80.50
2023-02-22T02:31:26.959Z,81.70
2023-02-22T02:32:26.929Z,38.40
2023-02-22T02:33:26.879Z,31.50
2023-02-22T02:34:26.928Z,42.20
2023-02-22T02:35:26.896Z,82.30
2023-02-22T02:36:26.880Z,479.20
2023-02-22T02:37:26.878Z,96.30
2023-02-22T02:38:26.923Z,41.00
2023-02-22T02:39:26.894Z,28.60
2023-02-22T02:40:26.909Z,26.00
2023-02-22T02:41:26.843Z,28.00
2023-02-22T02:42:26.841Z,35.00
2023-02-22T02:43:26.880Z,31.50
2023-02-22T02:44:26.834Z,30.20
2023-02-22T02:45:26.807Z,33.90
2023-02-22T02:46:26.806Z,35.80
2023-02-22T02:47:26.850Z,44.10
2023-02-22T02:48:26.798Z,32.80
2023-02-22T02:49:26.814Z,36.20
2023-02-22T02:50:26.777Z,30.10
2023-02-22T02:51:26.782Z,39.60
2023-02-22T02:52:26.819Z,45.00
2023-02-22T02:53:26.765Z,39.10
2023-02-22T02:54:26.760Z,32.90
2023-02-22T02:55:26.739Z,45.80
2023-02-22T02:56:26.748Z,37.90
2023-02-22T02:57:26.745Z,39.80
2023-02-22T02:58:26.744Z,51.70
2023-02-22T02:59:26.734Z,35.60
2023-02-22T03:00:26.725Z,50.20
2023-02-22T03:01:26.741Z,33.60
2023-02-22T03:02:26.742Z,30.10
2023-02-22T03:03:26.702Z,50.80
2023-02-22T03:04:26.707Z,46.60
2023-02-22T03:05:26.710Z,45.00
2023-02-22T03:06:26.689Z,83.00
2023-02-22T03:07:26.708Z,252.70
2023-02-22T03:08:26.673Z,60.80
2023-02-22T03:09:26.673Z,54.40
2023-02-22T03:10:26.678Z,51.80
2023-02-22T03:11:26.673Z,92.40
2023-02-22T03:12:26.657Z,89.00
2023-02-22T03:13:26.628Z,47.60
2023-02-22T03:14:26.658Z,51.90
2023-02-22T03:15:26.633Z,51.50
2023-02-22T03:16:26.694Z,45.30
2023-02-22T03:17:26.643Z,35.10
2023-02-22T03:18:26.625Z,47.30
2023-02-22T03:19:26.627Z,45.60
2023-02-22T03:20:26.596Z,62.80
2023-02-22T03:21:26.597Z,51.20
2023-02-22T03:22:26.603Z,37.70
2023-02-22T03:23:26.625Z,30.40
2023-02-22T03:24:26.599Z,32.60
2023-02-22T03:25:26.578Z,29.80
2023-02-22T03:26:26.574Z,42.40
2023-02-22T03:27:26.548Z,29.50
2023-02-22T03:28:26.564Z,41.00
2023-02-22T03:29:26.614Z,69.90
2023-02-22T03:30:26.570Z,78.50
2023-02-22T03:31:26.593Z,49.00
2023-02-22T03:32:26.556Z,30.00
2023-02-22T03:33:26.520Z,26.20
2023-02-22T03:34:26.509Z,28.80
2023-02-22T03:35:26.528Z,33.20
2023-02-22T03:36:26.567Z,25.80
2023-02-22T03:37:26.538Z,23.70
2023-02-22T03:38:26.488Z,37.80
2023-02-22T03:39:26.480Z,31.00
2023-02-22T03:40:26.497Z,27.20
2023-02-22T03:41:26.487Z,42.30
2023-02-22T03:42:26.536Z,22.30
2023-02-22T03:43:26.492Z,356.80
2023-02-22T03:44:26.464Z,506.30
2023-02-22T03:45:26.465Z,176.70
2023-02-22T03:46:26.495Z,175.30
2023-02-22T03:47:26.547Z,268.10
2023-02-22T03:48:26.426Z,260.80
2023-02-22T03:49:26.420Z,287.70
2023-02-22T03:50:26.424Z,258.50
2023-02-22T03:51:26.422Z,399.30
2023-02-22T03:52:26.432Z,103.00
2023-02-22T03:53:26.423Z,40.40
2023-02-22T03:54:26.401Z,158.30
2023-02-22T03:55:26.385Z,211.60
2023-02-22T03:56:26.389Z,156.60
2023-02-22T03:57:26.420Z,117.80
2023-02-22T03:58:26.393Z,322.00
2023-02-22T03:59:26.357Z,304.70
2023-02-22T04:00:26.355Z,340.00
2023-02-22T04:01:26.352Z,31.00
2023-02-22T04:02:26.375Z,32.80
2023-02-22T04:03:26.343Z,20.70
2023-02-22T04:04:26.369Z,269.60
2023-02-22T04:05:26.335Z,266.00
2023-02-22T04:06:26.309Z,285.30
2023-02-22T04:07:26.325Z,219.30
2023-02-22T04:08:26.332Z,86.90
2023-02-22T04:09:26.319Z,79.40
2023-02-22T04:10:26.317Z,190.00
2023-02-22T04:11:26.287Z,159.20
2023-02-22T04:12:26.273Z,281.00
2023-02-22T04:13:26.280Z,70.30
2023-02-22T04:14:28.169Z,47.70
2023-02-22T04:15:26.262Z,28.50
2023-02-22T04:16:26.279Z,34.80
2023-02-22T04:17:26.332Z,31.50
2023-02-22T04:18:26.327Z,267.80
2023-02-22T04:19:26.252Z,37.10
2023-02-22T04:20:26.282Z,29.70
2023-02-22T04:21:26.261Z,36.00
2023-02-22T04:22:26.283Z,26.90
2023-02-22T04:23:26.253Z,56.00
2023-02-22T04:24:26.226Z,40.40
2023-02-22T04:25:26.251Z,31.80
2023-02-22T04:26:26.197Z,33.40
2023-02-22T04:27:26.249Z,29.10
2023-02-22T04:28:26.198Z,32.10
2023-02-22T04:29:26.249Z,25.20
2023-02-22T04:30:26.227Z,29.90
2023-02-22T04:31:26.232Z,42.80
2023-02-22T04:32:26.177Z,35.20
2023-02-22T04:33:26.155Z,64.00
2023-02-22T04:34:26.205Z,64.40
2023-02-22T04:35:26.164Z,52.30
2023-02-22T04:36:26.194Z,37.30
2023-02-22T04:37:26.149Z,72.30
2023-02-22T04:38:26.156Z,220.00
2023-02-22T04:39:26.184Z,29.70
2023-02-22T04:40:26.154Z,40.90
2023-02-22T04:41:26.132Z,36.40
2023-02-22T04:42:26.190Z,30.90
2023-02-22T04:43:26.114Z,30.70
2023-02-22T04:44:26.121Z,39.80
2023-02-22T04:45:26.118Z,34.40
2023-02-22T04:46:26.107Z,23.90
2023-02-22T04:47:26.121Z,35.70
2023-02-22T04:48:26.101Z,165.80
2023-02-22T04:49:26.072Z,174.70
2023-02-22T04:50:26.190Z,48.70
2023-02-22T04:51:26.146Z,133.30
2023-02-22T04:52:26.050Z,38.00
2023-02-22T04:53:26.082Z,247.30
2023-02-22T04:54:26.099Z,273.40
2023-02-22T04:55:26.097Z,110.30
2023-02-22T04:56:26.044Z,32.30
2023-02-22T04:57:26.060Z,603.80
2023-02-22T04:58:26.053Z,691.50
2023-02-22T04:59:26.013Z,98.70
2023-02-22T05:00:26.003Z,38.00
2023-02-22T05:01:25.996Z,51.50
2023-02-22T05:02:26.009Z,137.00
2023-02-22T05:03:26.014Z,371.40
2023-02-22T05:04:26.041Z,141.10
2023-02-22T05:05:26.021Z,67.00
2023-02-22T05:06:25.972Z,352.90
2023-02-22T05:07:25.973Z,66.20
2023-02-22T05:08:25.964Z,30.70
2023-02-22T05:09:25.969Z,53.70
2023-02-22T05:10:25.942Z,66.60
2023-02-22T05:11:25.944Z,151.20
2023-02-22T05:12:25.943Z,134.20
2023-02-22T05:13:25.954Z,94.90
2023-02-22T05:14:25.966Z,103.40
2023-02-22T05:15:25.901Z,187.70
2023-02-22T05:16:25.907Z,235.30
2023-02-22T05:17:25.895Z,93.00
2023-02-22T05:18:25.950Z,63.20
2023-02-22T05:19:25.895Z,62.80
2023-02-22T05:20:25.985Z,379.20
2023-02-22T05:21:25.934Z,330.00
2023-02-22T05:22:25.888Z,62.30
2023-02-22T05:23:25.916Z,56.90
2023-02-22T05:24:25.887Z,91.90
2023-02-22T05:25:25.864Z,49.30
2023-02-22T05:26:26.007Z,283.50
2023-02-22T05:27:25.841Z,63.70
2023-02-22T05:28:25.859Z,53.90
2023-02-22T05:29:25.860Z,318.20
2023-02-22T05:30:25.881Z,161.30
2023-02-22T05:31:25.923Z,521.90
2023-02-22T05:32:32.823Z,279.60
2023-02-22T05:33:25.801Z,278.50
2023-02-22T05:34:25.811Z,95.20
2023-02-22T05:35:25.777Z,55.50
2023-02-22T05:36:25.777Z,63.90
2023-02-22T05:37:25.795Z,148.30
2023-02-22T05:38:25.775Z,253.10
2023-02-22T05:39:25.747Z,311.20
2023-02-22T05:40:25.753Z,148.20
2023-02-22T05:41:25.759Z,115.10
2023-02-22T05:42:25.765Z,509.80
2023-02-22T05:43:25.734Z,228.20
2023-02-22T05:44:25.764Z,267.50
2023-02-22T05:45:25.726Z,256.70
2023-02-22T05:46:25.766Z,74.20
2023-02-22T05:47:25.730Z,319.60
2023-02-22T05:48:25.703Z,515.40
2023-02-22T05:49:25.722Z,65.40
2023-02-22T05:50:25.729Z,529.60
2023-02-22T05:51:25.708Z,306.70
2023-02-22T05:52:25.697Z,662.30
2023-02-22T05:53:25.688Z,491.00
2023-02-22T05:54:25.703Z,537.10
2023-02-22T05:55:25.663Z,114.80
2023-02-22T05:56:25.706Z,71.10
2023-02-22T05:57:25.663Z,163.10
2023-02-22T05:58:25.663Z,185.20
2023-02-22T05:59:25.678Z,95.40
2023-02-22T06:00:25.666Z,45.10
2023-02-22T06:01:25.630Z,37.60
2023-02-22T06:02:25.640Z,38.20
2023-02-22T06:03:25.667Z,30.70
2023-02-22T06:04:25.606Z,31.70
2023-02-22T06:05:25.601Z,41.60
2023-02-22T06:06:25.603Z,64.10
2023-02-22T06:07:25.588Z,62.90
2023-02-22T06:08:25.589Z,173.20
2023-02-22T06:09:25.595Z,418.70
2023-02-22T06:10:25.572Z,285.90
2023-02-22T06:11:25.577Z,233.70
2023-02-22T06:12:25.561Z,291.00
2023-02-22T06:13:25.543Z,131.90
2023-02-22T06:14:25.581Z,456.10
2023-02-22T06:15:25.559Z,286.10
2023-02-22T06:16:25.565Z,349.40
2023-02-22T06:17:25.525Z,259.50
2023-02-22T06:18:25.530Z,85.30
2023-02-22T06:19:25.534Z,309.10
2023-02-22T06:20:25.505Z,698.30
2023-02-22T06:21:25.525Z,60.10
2023-02-22T06:22:25.507Z,38.20
2023-02-22T06:23:25.495Z,40.90
2023-02-22T06:24:25.501Z,41.60
2023-02-22T06:25:25.496Z,203.10
2023-02-22T06:26:25.481Z,43.20
2023-02-22T06:27:25.487Z,84.10
2023-02-22T06:28:25.460Z,62.30
2023-02-22T06:29:25.459Z,29.60
2023-02-22T06:30:25.551Z,29.40
2023-02-22T06:31:25.502Z,32.30
2023-02-22T06:32:25.436Z,51.60
2023-02-22T06:33:25.437Z,29.30
2023-02-22T06:34:25.445Z,35.60
2023-02-22T06:35:25.445Z,57.70
2023-02-22T06:36:25.433Z,27.30
2023-02-22T06:37:25.400Z,43.90
2023-02-22T06:38:25.426Z,31.60
2023-02-22T06:39:25.400Z,31.50
2023-02-22T06:40:25.416Z,419.10
2023-02-22T06:41:25.384Z,247.10
2023-02-22T06:42:25.490Z,377.70
2023-02-22T06:43:25.370Z,243.00
2023-02-22T06:44:25.401Z,141.50
2023-02-22T06:45:25.415Z,121.00
2023-02-22T06:46:25.381Z,705.80
2023-02-22T06:47:25.347Z,395.60
2023-02-22T06:48:25.339Z,439.00
2023-02-22T06:49:25.361Z,489.10
2023-02-22T06:50:25.354Z,487.10
2023-02-22T06:51:25.348Z,287.60
2023-02-22T06:52:25.317Z,126.70
2023-02-22T06:53:25.308Z,88.70
2023-02-22T06:54:25.318Z,153.10
2023-02-22T06:55:25.339Z,260.40
2023-02-22T06:56:25.282Z,93.80
2023-02-22T06:57:25.288Z,217.00
2023-02-22T06:58:25.274Z,149.10
2023-02-22T06:59:25.274Z,245.60
2023-02-22T07:00:25.289Z,683.90
2023-02-22T07:01:25.252Z,279.90
2023-02-22T07:02:25.255Z,96.40
2023-02-22T07:03:25.315Z,131.70
2023-02-22T07:04:25.241Z,41.00
2023-02-22T07:05:25.240Z,58.80
2023-02-22T07:06:25.255Z,50.70
2023-02-22T07:07:25.250Z,91.70
2023-02-22T07:08:25.232Z,320.20
2023-02-22T07:09:25.207Z,176.40
2023-02-22T07:10:25.263Z,126.10
2023-02-22T07:11:25.203Z,123.50
2023-02-22T07:12:25.194Z,80.60
2023-02-22T07:13:25.204Z,74.50
2023-02-22T07:14:25.205Z,76.90
2023-02-22T07:15:25.199Z,66.60
2023-02-22T07:16:25.220Z,263.60
2023-02-22T07:17:25.176Z,225.30
2023-02-22T07:18:25.197Z,399.20
2023-02-22T07:19:25.172Z,490.40
2023-02-22T07:20:25.170Z,596.60
2023-02-22T07:21:25.158Z,227.10
2023-02-22T07:22:25.161Z,168.20
2023-02-22T07:23:25.135Z,486.00
2023-02-22T07:24:25.153Z,185.90
2023-02-22T07:25:25.133Z,113.50
2023-02-22T07:26:25.131Z,34.10
2023-02-22T07:27:25.137Z,47.10
2023-02-22T07:28:25.105Z,213.60
2023-02-22T07:29:25.118Z,425.50
2023-02-22T07:30:25.231Z,381.90
2023-02-22T07:31:25.100Z,337.00
2023-02-22T07:32:25.228Z,470.80
2023-02-22T07:33:25.096Z,288.80
2023-02-22T07:34:25.087Z,359.10
2023-02-22T07:35:25.082Z,226.30
2023-02-22T07:36:25.121Z,340.30
2023-02-22T07:37:25.073Z,183.30
2023-02-22T07:38:25.100Z,88.40
2023-02-22T07:39:25.063Z,63.20
2023-02-22T07:40:25.074Z,36.00
2023-02-22T07:41:25.061Z,46.10
2023-02-22T07:42:25.038Z,32.50
2023-02-22T07:43:25.053Z,40.20
2023-02-22T07:44:25.020Z,146.70
2023-02-22T07:45:25.050Z,287.40
2023-02-22T07:46:25.013Z,523.40
2023-02-22T07:47:25.003Z,354.10
2023-02-22T07:48:24.989Z,138.10
2023-02-22T07:49:25.007Z,96.20
2023-02-22T07:50:24.981Z,194.70
2023-02-22T07:51:24.981Z,1038.90
2023-02-22T07:52:24.963Z,480.40
2023-02-22T07:53:25.855Z,111.30
2023-02-22T07:54:24.975Z,185.30
2023-02-22T07:55:24.986Z,804.30
2023-02-22T07:56:24.971Z,279.80
2023-02-22T07:57:24.988Z,65.20
2023-02-22T07:58:24.958Z,34.30
2023-02-22T07:59:24.917Z,33.40
2023-02-22T08:00:24.929Z,515.70
2023-02-22T08:01:24.940Z,429.80
2023-02-22T08:02:24.949Z,224.40
2023-02-22T08:03:24.956Z,310.40
2023-02-22T08:04:24.903Z,817.60
2023-02-22T08:05:24.898Z,254.20
2023-02-22T08:06:24.908Z,97.40
2023-02-22T08:07:24.896Z,615.20
2023-02-22T08:08:24.920Z,377.00
2023-02-22T08:09:24.897Z,239.20
2023-02-22T08:10:24.864Z,294.10
2023-02-22T08:11:24.856Z,81.20
2023-02-22T08:12:24.847Z,310.50
2023-02-22T08:13:24.836Z,182.60
2023-02-22T08:14:24.847Z,1208.80
2023-02-22T08:15:24.868Z,82.10
2023-02-22T08:16:24.866Z,461.30
2023-02-22T08:17:24.872Z,462.50
2023-02-22T08:18:24.822Z,372.50
2023-02-22T08:19:24.808Z,454.70
2023-02-22T08:20:24.825Z,591.50
2023-02-22T08:21:24.825Z,699.70
2023-02-22T08:22:24.791Z,718.20
2023-02-22T08:23:24.792Z,571.70
2023-02-22T08:24:24.765Z,124.50
2023-02-22T08:25:24.768Z,43.30
2023-02-22T08:26:24.755Z,32.60
2023-02-22T08:27:24.755Z,63.30
2023-02-22T08:28:24.759Z,549.70
2023-02-22T08:29:24.754Z,70.30
2023-02-22T08:30:24.761Z,112.20
2023-02-22T08:31:24.775Z,649.30
2023-02-22T08:32:24.880Z,189.90
2023-02-22T08:33:24.834Z,80.00
2023-02-22T08:34:24.707Z,255.10
2023-02-22T08:35:24.722Z,322.70
2023-02-22T08:36:24.712Z,679.80
2023-02-22T08:37:24.706Z,1204.00
2023-02-22T08:38:24.724Z,944.80
2023-02-22T08:39:24.688Z,926.20
2023-02-22T08:40:24.693Z,742.10
2023-02-22T08:41:24.659Z,1030.70
2023-02-22T08:42:24.689Z,505.30
2023-02-22T08:43:24.693Z,1301.40
2023-02-22T08:44:24.655Z,584.70
2023-02-22T08:45:24.631Z,395.00
2023-02-22T08:46:24.666Z,83.20
2023-02-22T08:47:24.631Z,63.00
2023-02-22T08:48:24.647Z,214.80
2023-02-22T08:49:24.615Z,1415.20
2023-02-22T08:50:24.717Z,786.60
2023-02-22T08:51:26.247Z,812.40
2023-02-22T08:52:24.607Z,130.00
2023-02-22T08:53:24.603Z,80.70
2023-02-22T08:54:24.608Z,831.50
2023-02-22T08:55:24.593Z,208.80
2023-02-22T08:56:24.593Z,627.70
2023-02-22T08:57:24.587Z,1030.70
2023-02-22T08:58:24.584Z,663.00
2023-02-22T08:59:24.585Z,313.40
2023-02-22T09:00:24.549Z,531.90
2023-02-22T09:01:32.701Z,339.60
2023-02-22T09:02:24.638Z,345.10
2023-02-22T09:03:24.605Z,274.80
2023-02-22T09:04:24.527Z,516.70
2023-02-22T09:05:24.539Z,560.80
2023-02-22T09:06:24.505Z,533.90
2023-02-22T09:07:24.521Z,688.50
2023-02-22T09:08:24.527Z,771.50
2023-02-22T09:09:24.558Z,667.00
2023-02-22T09:10:24.489Z,356.30
2023-02-22T09:11:24.476Z,196.90
2023-02-22T09:12:24.485Z,236.50
2023-02-22T09:13:24.466Z,105.60
2023-02-22T09:14:24.502Z,416.10
2023-02-22T09:15:24.505Z,42.30
2023-02-22T09:16:24.529Z,505.60
2023-02-22T09:17:24.434Z,259.80
2023-02-22T09:18:26.881Z,35.10
2023-02-22T09:19:24.452Z,110.80
2023-02-22T09:20:24.490Z,848.30
2023-02-22T09:21:24.418Z,534.70
2023-02-22T09:22:24.440Z,545.90
2023-02-22T09:23:24.420Z,391.40
2023-02-22T09:24:24.429Z,742.30
2023-02-22T09:25:24.432Z,89.00
2023-02-22T09:26:24.411Z,376.30
2023-02-22T09:27:24.430Z,486.40
2023-02-22T09:28:24.374Z,75.10
2023-02-22T09:29:24.381Z,544.90
2023-02-22T09:30:24.578Z,469.10
2023-02-22T09:31:24.546Z,371.20
2023-02-22T09:32:24.542Z,504.40
2023-02-22T09:33:24.399Z,112.90
2023-02-22T09:34:24.375Z,788.70
2023-02-22T09:35:24.348Z,493.50
2023-02-22T09:36:26.119Z,542.10
2023-02-22T09:37:24.338Z,350.10
2023-02-22T09:38:24.325Z,541.60
2023-02-22T09:39:24.482Z,341.70
2023-02-22T09:40:24.299Z,671.40
2023-02-22T09:41:24.339Z,591.50
2023-02-22T09:42:24.298Z,773.00
2023-02-22T09:43:24.285Z,324.90
2023-02-22T09:44:24.280Z,612.20
2023-02-22T09:45:24.297Z,415.70
2023-02-22T09:46:24.268Z,757.20
2023-02-22T09:47:24.418Z,573.80
2023-02-22T09:48:24.292Z,35.60
2023-02-22T09:49:24.265Z,29.60
2023-02-22T09:50:24.292Z,45.80
2023-02-22T09:51:24.255Z,382.40
2023-02-22T09:52:24.261Z,205.40
2023-02-22T09:53:26.358Z,89.00
2023-02-22T09:54:24.233Z,85.90
2023-02-22T09:55:24.233Z,49.40
2023-02-22T09:56:24.237Z,28.00
2023-02-22T09:57:24.205Z,29.20
2023-02-22T09:58:24.236Z,29.60
2023-02-22T09:59:24.223Z,30.20
2023-02-22T10:00:24.216Z,25.10
2023-02-22T10:01:24.169Z,21.80
2023-02-22T10:02:24.241Z,108.90
2023-02-22T10:03:24.215Z,31.10
2023-02-22T10:04:24.205Z,26.10
2023-02-22T10:05:24.198Z,25.70
2023-02-22T10:06:24.165Z,20.80
2023-02-22T10:07:24.188Z,22.50
2023-02-22T10:08:24.196Z,22.30
2023-02-22T10:09:24.140Z,60.50
2023-02-22T10:10:24.152Z,35.00
2023-02-22T10:11:24.125Z,221.60
2023-02-22T10:12:24.112Z,31.50
2023-02-22T10:13:24.119Z,24.20
2023-02-22T10:14:24.128Z,30.10
2023-02-22T10:15:24.107Z,195.80
2023-02-22T10:16:24.136Z,38.50
2023-02-22T10:17:24.095Z,20.40
2023-02-22T10:18:24.066Z,19.80
2023-02-22T10:19:24.093Z,23.40
2023-02-22T10:20:24.089Z,37.80
2023-02-22T10:21:24.095Z,24.40
2023-02-22T10:22:24.059Z,20.10
2023-02-22T10:23:24.040Z,20.00
2023-02-22T10:24:24.052Z,23.80
2023-02-22T10:25:24.045Z,22.40
2023-02-22T10:26:24.074Z,22.00
2023-02-22T10:27:24.012Z,18.90
2023-02-22T10:28:24.032Z,17.50
2023-02-22T10:29:24.007Z,16.70
2023-02-22T10:30:25.593Z,18.80
2023-02-22T10:31:24.100Z,31.60
2023-02-22T10:32:24.059Z,33.00
2023-02-22T10:33:23.985Z,21.10
2023-02-22T10:34:23.964Z,30.90
2023-02-22T10:35:23.969Z,20.70
2023-02-22T10:36:23.977Z,19.00
2023-02-22T10:37:24.061Z,22.00
2023-02-22T10:38:23.961Z,21.00
2023-02-22T10:39:24.007Z,16.90
2023-02-22T10:40:23.950Z,15.10
2023-02-22T10:41:23.963Z,15.10
2023-02-22T10:42:23.940Z,15.60
2023-02-22T10:43:23.974Z,16.20
2023-02-22T10:44:23.920Z,14.10
2023-02-22T10:45:23.933Z,16.70
2023-02-22T10:46:23.921Z,14.60
2023-02-22T10:47:23.901Z,14.70
2023-02-22T10:48:23.972Z,15.90
2023-02-22T10:49:23.898Z,15.60
2023-02-22T10:50:23.904Z,16.10
2023-02-22T10:51:23.863Z,14.70
2023-02-22T10:52:23.881Z,17.60
2023-02-22T10:53:23.877Z,17.10
2023-02-22T10:54:23.897Z,14.20
2023-02-22T10:55:23.849Z,14.10
2023-02-22T10:56:23.865Z,14.60
2023-02-22T10:57:23.834Z,15.10
2023-02-22T10:58:23.829Z,12.90
2023-02-22T10:59:25.612Z,15.40
2023-02-22T11:00:23.845Z,16.40
2023-02-22T11:01:23.914Z,15.00
2023-02-22T11:02:23.814Z,16.20
2023-02-22T11:03:23.815Z,16.00
2023-02-22T11:04:23.792Z,17.70
2023-02-22T11:05:23.867Z,18.40
2023-02-22T11:06:23.776Z,17.40
2023-02-22T11:07:23.798Z,15.80
2023-02-22T11:08:23.791Z,16.90
2023-02-22T11:09:23.764Z,16.70
2023-02-22T11:10:23.761Z,15.40
2023-02-22T11:11:23.774Z,16.90
2023-02-22T11:12:23.751Z,15.90
2023-02-22T11:13:23.747Z,16.50
2023-02-22T11:14:23.745Z,16.50
2023-02-22T11:15:23.726Z,16.00
2023-02-22T11:16:23.750Z,17.10
2023-02-22T11:17:23.753Z,17.70
2023-02-22T11:18:23.702Z,16.00
2023-02-22T11:19:23.679Z,16.20
2023-02-22T11:20:23.692Z,16.80
2023-02-22T11:21:23.709Z,17.40
2023-02-22T11:22:23.671Z,17.30
2023-02-22T11:23:23.721Z,17.40
2023-02-22T11:24:23.681Z,17.40
2023-02-22T11:25:23.713Z,16.20
2023-02-22T11:26:23.658Z,16.60
2023-02-22T11:27:23.631Z,15.20
2023-02-22T11:28:23.632Z,15.90
2023-02-22T11:29:23.676Z,14.40
2023-02-22T11:30:23.659Z,15.10
2023-02-22T11:31:23.816Z,13.80
2023-02-22T11:32:23.645Z,14.60
2023-02-22T11:33:31.791Z,14.20
2023-02-22T11:34:23.608Z,13.70
2023-02-22T11:35:23.624Z,16.60
2023-02-22T11:36:23.585Z,14.30
2023-02-22T11:37:23.565Z,14.50
2023-02-22T11:38:23.591Z,14.20
2023-02-22T11:39:23.563Z,13.90
2023-02-22T11:40:23.568Z,14.30
2023-02-22T11:41:23.537Z,11.80
2023-02-22T11:42:23.546Z,13.40
2023-02-22T11:43:23.527Z,14.10
2023-02-22T11:44:23.515Z,12.60
2023-02-22T11:45:23.506Z,12.50
2023-02-22T11:46:23.546Z,12.70
2023-02-22T11:47:23.476Z,12.10
2023-02-22T11:48:23.496Z,12.70
2023-02-22T11:49:23.475Z,13.00
2023-02-22T11:50:23.500Z,12.90
2023-02-22T11:51:23.484Z,13.00
2023-02-22T11:52:25.053Z,12.60
2023-02-22T11:53:23.451Z,13.20
2023-02-22T11:54:23.469Z,12.50
2023-02-22T11:55:36.322Z,12.10
2023-02-22T11:56:36.980Z,12.00
2023-02-22T11:57:24.409Z,11.80
2023-02-22T11:58:23.414Z,12.70
2023-02-22T11:59:23.421Z,11.90
2023-02-22T12:00:23.421Z,11.80
2023-02-22T12:01:23.389Z,13.60
2023-02-22T12:02:23.421Z,12.00
2023-02-22T12:03:23.424Z,12.10
2023-02-22T12:04:23.413Z,13.60
2023-02-22T12:05:23.368Z,13.70
2023-02-22T12:06:23.416Z,13.60
2023-02-22T12:07:23.351Z,13.20
2023-02-22T12:08:23.357Z,12.90
2023-02-22T12:09:23.337Z,14.00
2023-02-22T12:10:23.328Z,13.40
2023-02-22T12:11:23.340Z,12.60
2023-02-22T12:12:23.329Z,12.50
2023-02-22T12:13:23.289Z,13.00
2023-02-22T12:14:23.286Z,14.80
2023-02-22T12:15:23.288Z,15.30
2023-02-22T12:16:23.286Z,12.90
2023-02-22T12:17:23.296Z,13.30
2023-02-22T12:18:23.274Z,14.00
2023-02-22T12:19:23.267Z,14.20
2023-02-22T12:20:23.241Z,14.20
2023-02-22T12:21:23.281Z,14.60
2023-02-22T12:22:23.233Z,15.30
2023-02-22T12:23:23.225Z,15.30
2023-02-22T12:24:23.215Z,14.30
2023-02-22T12:25:23.227Z,14.10
2023-02-22T12:26:23.205Z,15.50
2023-02-22T12:27:23.209Z,14.40
2023-02-22T12:28:25.118Z,15.10
2023-02-22T12:29:23.186Z,12.90
2023-02-22T12:30:23.192Z,14.10
2023-02-22T12:31:23.308Z,14.20
2023-02-22T12:32:23.305Z,13.30
2023-02-22T12:33:23.148Z,12.70
2023-02-22T12:34:23.194Z,13.40
2023-02-22T12:35:23.144Z,14.50
2023-02-22T12:36:23.153Z,14.00
2023-02-22T12:37:23.139Z,13.30
2023-02-22T12:38:23.272Z,14.90
2023-02-22T12:39:23.099Z,14.40
2023-02-22T12:40:23.100Z,14.00
2023-02-22T12:41:23.104Z,14.00
2023-02-22T12:42:23.101Z,14.60
2023-02-22T12:43:23.089Z,14.00
2023-02-22T12:44:23.084Z,13.20